Tuesday, August 30, 2016
18:57 UTC
  |  Log In   |  Register Free
Airport Search:

Foothills Regional Airport
(KMRN)

Foothills Regional Airport Diagram
No Airport Diagram Available

FAA data valid effective Jul 21 2016 - Sep 15 2016 (unless otherwise noted).

 
 
 
 
 
 
 
 
 
 
 
 
 
 
Current Aviation Weather for KMRN

Weather Summary


The most recent METAR observation for MRN was updated at: 12:55 UTC
METAR for MRN is not available. Closest METAR is for
METAR

METAR KMRN 301840Z 15004KT 10SM CLR 31/18 A3017 RMK AO2 T03080179

METAR KMRN 301820Z 08004KT 10SM CLR 31/18 A3017 RMK AO2 T03070178

METAR KMRN 301800Z 13004KT 10SM CLR 30/18 A3018 RMK AO2 T03020177

METAR KMRN 301740Z 13004KT 10SM SCT044 31/18 A3019 RMK AO2 T03050178

METAR KMRN 301720Z 09003KT 10SM SCT046 SCT050 30/18 A3020 RMK AO2 T03040181

METAR KMRN 301700Z 14003KT 10SM SCT044 SCT050 30/17 A3021 RMK AO2 T03040173

METAR KMRN 301640Z 16003KT 10SM SCT042 BKN050 30/18 A3021 RMK AO2 T03020183

METAR KMRN 301620Z 00000KT 10SM SCT040 SCT047 SCT060 29/19 A3022 RMK AO2 T02920185

METAR KMRN 301600Z 00000KT 10SM BKN040 BKN047 BKN060 29/20 A3022 RMK AO2 T02860195

METAR KEHO 301840Z 02005KT 10SM SCT050 31/18 A3009 RMK AO2 T03110177

METAR KFQD 301840Z 07003KT 10SM 29/18 A3012 RMK AO2 T02940183

METAR KHKY 301753Z VRB03KT 10SM CLR 31/19 A3013 RMK AO2 SLP178 T03060189 10311 20211 58016

TAF for MRN is not available.
TAF

KHKY - TAF KHKY 301734Z 3018/3118 07004KT P6SM FEW060

KHKY - FM311400 VRB03KT P6SM FEW050 =

GlobalAir.com is loading additional information.
 Current Weather at MRN
86.0 F° (30.2 C°)

South winds at 3.5 mph
Pressure:
30.21 in
Humidity:
49%
Wind:
South at 3.5 mph
Dew Point:
64.9 F° (18.3 C°)
Visibility:
10.00 mi
MRN NOAA Radar




Find All Airport Services Find A Hotel Find A Rental Car Find A Golf Course Find A Restaurant $100 Hamburger



Airport Weather Forecast for KMRN

Translated METAR for KMRN (1840 UTC)
METAR:
KMRN 301840Z AUTO Foothills Regional, Morganton, NC (KMRN). Aug 30, 1840Z, Automated. Wind from 150° at 4 knots, 10 statute miles visibility, Clear Skies, Temperature 31°C, Dewpoint 18°C, Altimeter is 30.17. Remarks: automated station with precipitation discriminator hourly temp 30.8°C dewpoint 17.9°C
Conditions at:
KMRN (Foothills Regional, NC) observed 1840 UTC 30 August 2016
Temperature:
86.0 F° (30.2 C°)
Dewpoint:
not reported - refer to area weather report
Pressure:
30.21 Hg
Winds:
not reported
Visibility:
10.00
Ceiling:
at least 12,000 feet AGL
Clouds:
not reported - refer to area weather report
Remarks:
site is un-manned

Translated TAF for TAF for MRN is not available. Refer to local area forecast.
FBO's on the Field
FBO Company Facility Photos Services Transportation Aviation Fuel Prices: Prices include tax
Catering Weather Repair Courtesy Rental Type 100LL JetA JetA+ MOGAS 8087
 
Foothills Aviation

This FBO has not yet been rated
FS:Shell
Last Updated: Aug-29
Login to update fuel prices
SS:
Contact Foothills AviationMore FBO Information
 
Add another FBO Facility Photos Catering Weather Repair Courtesy Rental Type 100LL JetA JetA+ MOGAS 8087
Services Transportation Aviation Fuel Prices: Prices include tax


model-print
model-print
model-print
model-print